createdAt,value
2019-03-18T00:01:39.940Z,47.40
2019-03-18T00:02:45.351Z,46.60
2019-03-18T00:04:53.267Z,46.60
2019-03-18T00:05:57.651Z,46.60
2019-03-18T00:08:05.679Z,46.60
2019-03-18T00:11:18.781Z,46.90
2019-03-18T00:14:30.701Z,46.90
2019-03-18T00:15:35.103Z,46.70
2019-03-18T00:18:48.600Z,47.00
2019-03-18T00:19:53.873Z,46.80
2019-03-18T00:22:02.893Z,46.80
2019-03-18T00:24:10.889Z,46.80
2019-03-18T00:28:27.519Z,46.90
2019-03-18T00:31:39.096Z,46.80
2019-03-18T00:33:47.185Z,46.90
2019-03-18T00:34:51.621Z,46.90
2019-03-18T00:38:04.252Z,46.90
2019-03-18T00:39:08.650Z,47.00
2019-03-18T00:42:23.008Z,47.70
2019-03-18T00:44:31.918Z,47.00
2019-03-18T00:45:36.318Z,47.20
2019-03-18T00:48:48.533Z,47.00
2019-03-18T00:58:23.509Z,47.10
2019-03-18T00:59:27.869Z,47.30
2019-03-18T01:03:44.087Z,47.10
2019-03-18T01:04:48.677Z,47.10
2019-03-18T01:05:53.041Z,47.30
2019-03-18T01:10:12.521Z,47.50
2019-03-18T01:11:16.906Z,47.10
2019-03-18T01:16:36.439Z,47.10
2019-03-18T01:22:59.142Z,47.40
2019-03-18T01:26:12.432Z,47.40
2019-03-18T01:27:16.834Z,47.30
2019-03-18T01:28:21.226Z,47.20
2019-03-18T01:32:39.289Z,47.10
2019-03-18T01:33:43.687Z,47.30
2019-03-18T01:35:51.668Z,47.20
2019-03-18T01:36:56.318Z,47.40
2019-03-18T01:38:00.700Z,47.20
2019-03-18T01:39:05.938Z,47.30
2019-03-18T01:41:16.705Z,47.40
2019-03-18T01:42:21.087Z,47.20
2019-03-18T01:44:29.814Z,47.60
2019-03-18T01:45:40.624Z,47.30
2019-03-18T01:46:41.485Z,47.30
2019-03-18T01:47:46.141Z,47.50
2019-03-18T01:52:01.294Z,47.10
2019-03-18T01:55:12.868Z,47.40
2019-03-18T01:57:20.903Z,47.50
2019-03-18T02:00:32.501Z,47.40
2019-03-18T02:03:44.193Z,47.20
2019-03-18T02:04:48.564Z,47.40
2019-03-18T02:08:00.263Z,47.20
2019-03-18T02:09:06.247Z,47.30
2019-03-18T02:10:14.630Z,47.10
2019-03-18T02:11:19.044Z,47.20
2019-03-18T02:12:23.425Z,47.30
2019-03-18T02:14:31.364Z,47.10
2019-03-18T02:16:43.197Z,47.00
2019-03-18T02:17:47.734Z,46.90
2019-03-18T02:18:52.259Z,47.00
2019-03-18T02:21:00.319Z,47.20
2019-03-18T02:22:04.776Z,47.20
2019-03-18T02:23:09.198Z,47.10
2019-03-18T02:25:17.291Z,47.00
2019-03-18T02:26:21.688Z,47.20
2019-03-18T02:30:36.873Z,47.20
2019-03-18T02:36:59.355Z,47.00
2019-03-18T02:40:11.362Z,47.30
2019-03-18T02:43:22.927Z,47.30
2019-03-18T02:44:27.549Z,47.40
2019-03-18T02:47:39.140Z,47.40
2019-03-18T02:48:43.865Z,47.30
2019-03-18T02:49:48.241Z,47.40
2019-03-18T02:50:53.325Z,47.30
2019-03-18T02:51:57.650Z,47.40
2019-03-18T02:56:13.298Z,47.20
2019-03-18T02:58:21.288Z,47.40
2019-03-18T02:59:26.389Z,47.40
2019-03-18T03:02:38.016Z,47.50
2019-03-18T03:03:42.389Z,47.40
2019-03-18T03:04:46.834Z,47.20
2019-03-18T03:10:10.017Z,47.30
2019-03-18T03:11:14.725Z,47.30
2019-03-18T03:13:22.936Z,47.60
2019-03-18T03:14:27.349Z,47.70
2019-03-18T03:15:31.733Z,47.50
2019-03-18T03:17:39.742Z,47.60
2019-03-18T03:18:44.386Z,47.40
2019-03-18T03:19:49.102Z,47.40
2019-03-18T03:21:57.674Z,47.40
2019-03-18T03:24:05.694Z,47.40
2019-03-18T03:25:11.409Z,47.60
2019-03-18T03:27:20.718Z,47.40
2019-03-18T03:28:25.316Z,47.50
2019-03-18T03:30:33.273Z,47.60
2019-03-18T03:31:37.936Z,47.70
2019-03-18T03:34:49.807Z,47.90
2019-03-18T03:36:58.095Z,47.90
2019-03-18T03:41:17.886Z,47.70
2019-03-18T03:44:29.156Z,47.90
2019-03-18T03:49:49.267Z,47.60
2019-03-18T03:50:53.984Z,47.90
2019-03-18T03:51:58.350Z,47.60
2019-03-18T03:54:06.394Z,47.50
2019-03-18T03:57:19.109Z,47.50
2019-03-18T03:58:23.612Z,47.50
2019-03-18T03:59:29.262Z,47.60
2019-03-18T04:00:33.756Z,47.50
2019-03-18T04:01:38.585Z,47.20
2019-03-18T04:02:44.108Z,47.50
2019-03-18T04:05:56.338Z,47.40
2019-03-18T04:08:04.332Z,47.60
2019-03-18T04:10:14.006Z,47.60
2019-03-18T04:12:23.193Z,48.30
2019-03-18T04:13:27.822Z,47.70
2019-03-18T04:15:36.126Z,47.60
2019-03-18T04:16:44.022Z,47.60
2019-03-18T04:19:54.093Z,47.60
2019-03-18T04:20:59.601Z,47.70
2019-03-18T04:25:15.014Z,47.80
2019-03-18T04:26:19.584Z,47.60
2019-03-18T04:28:27.582Z,47.60
2019-03-18T04:31:39.195Z,48.10
2019-03-18T04:32:43.919Z,47.90
2019-03-18T04:33:48.491Z,48.10
2019-03-18T04:34:53.661Z,48.20
2019-03-18T04:39:10.165Z,48.10
2019-03-18T04:41:18.165Z,48.00
2019-03-18T04:42:22.545Z,47.90
2019-03-18T04:44:30.524Z,48.20
2019-03-18T04:48:48.712Z,48.10
2019-03-18T04:52:02.901Z,48.40
2019-03-18T04:54:10.975Z,48.10
2019-03-18T04:56:18.951Z,48.00
2019-03-18T04:58:26.973Z,48.60
2019-03-18T05:00:34.910Z,48.00
2019-03-18T05:01:39.320Z,47.80
2019-03-18T05:02:43.833Z,48.00
2019-03-18T05:03:48.163Z,47.80
2019-03-18T05:04:52.613Z,48.00
2019-03-18T05:05:58.558Z,48.00
2019-03-18T05:07:02.933Z,49.00
2019-03-18T05:08:07.368Z,48.00
2019-03-18T05:09:13.022Z,48.20
2019-03-18T05:10:17.641Z,48.00
2019-03-18T05:11:22.037Z,48.20
2019-03-18T05:12:26.398Z,48.10
2019-03-18T05:13:30.897Z,48.10
2019-03-18T05:15:38.951Z,48.10
2019-03-18T05:18:50.552Z,48.30
2019-03-18T05:23:06.445Z,48.10
2019-03-18T05:24:10.856Z,48.20
2019-03-18T05:25:15.267Z,48.50
2019-03-18T05:26:22.260Z,48.20
2019-03-18T05:27:26.087Z,48.20
2019-03-18T05:28:30.545Z,48.20
2019-03-18T05:30:38.640Z,48.20
2019-03-18T05:31:43.053Z,48.20
2019-03-18T05:32:47.465Z,48.30
2019-03-18T05:42:21.481Z,48.10
2019-03-18T05:44:30.145Z,48.30
2019-03-18T05:45:35.979Z,47.90
2019-03-18T05:46:40.386Z,48.10
2019-03-18T05:47:44.797Z,48.00
2019-03-18T05:49:53.909Z,48.20
2019-03-18T05:52:02.555Z,48.30
2019-03-18T05:53:07.128Z,48.30
2019-03-18T05:54:11.504Z,48.40
2019-03-18T05:55:15.886Z,48.50
2019-03-18T05:56:20.381Z,48.20
2019-03-18T05:58:28.369Z,48.30
2019-03-18T05:59:33.487Z,48.20
2019-03-18T06:03:49.623Z,47.90
2019-03-18T06:07:01.151Z,48.00
2019-03-18T06:11:16.779Z,48.00
2019-03-18T06:14:28.913Z,47.60
2019-03-18T06:15:33.602Z,47.60
2019-03-18T06:18:45.142Z,47.30
2019-03-18T06:19:49.516Z,48.10
2019-03-18T06:20:54.107Z,47.30
2019-03-18T06:23:02.064Z,47.40
2019-03-18T06:24:06.687Z,47.30
2019-03-18T06:29:29.606Z,47.30
2019-03-18T06:30:34.763Z,47.50
2019-03-18T06:32:43.656Z,47.40
2019-03-18T06:34:51.637Z,47.10
2019-03-18T06:35:56.046Z,47.10
2019-03-18T06:37:00.419Z,47.00
2019-03-18T06:38:04.872Z,47.10
2019-03-18T06:40:14.470Z,46.80
2019-03-18T06:42:22.608Z,46.30
2019-03-18T06:43:27.744Z,46.20
2019-03-18T06:46:39.354Z,46.00
2019-03-18T06:48:47.641Z,45.70
2019-03-18T06:49:53.089Z,45.60
2019-03-18T06:52:01.303Z,45.30
2019-03-18T06:53:05.671Z,45.00
2019-03-18T06:59:28.119Z,44.50
2019-03-18T07:02:40.773Z,42.80
2019-03-18T07:03:45.181Z,42.40
2019-03-18T07:11:16.427Z,43.30
2019-03-18T07:12:20.852Z,43.30
2019-03-18T07:13:26.333Z,43.70
2019-03-18T07:15:34.389Z,43.70
2019-03-18T07:16:38.811Z,43.70
2019-03-18T07:23:01.453Z,44.00
2019-03-18T07:24:05.819Z,43.80
2019-03-18T07:25:10.222Z,43.90
2019-03-18T07:28:22.003Z,43.90
2019-03-18T07:31:34.131Z,42.50
2019-03-18T07:32:38.595Z,42.40
2019-03-18T07:33:44.023Z,42.00
2019-03-18T07:35:52.023Z,41.40
2019-03-18T07:42:20.930Z,40.70
2019-03-18T07:48:44.120Z,39.40
2019-03-18T07:50:52.122Z,39.60
2019-03-18T07:51:56.581Z,39.90
2019-03-18T07:54:05.761Z,40.10
2019-03-18T07:55:10.247Z,40.00
2019-03-18T07:59:26.851Z,39.70
2019-03-18T08:00:32.533Z,39.70
2019-03-18T08:02:40.526Z,39.50
2019-03-18T08:04:48.511Z,39.20
2019-03-18T08:06:56.526Z,39.30
2019-03-18T08:08:01.410Z,39.20
2019-03-18T08:09:07.609Z,39.20
2019-03-18T08:11:16.676Z,39.30
2019-03-18T08:14:28.560Z,39.30
2019-03-18T08:15:33.041Z,39.20
2019-03-18T08:18:44.615Z,39.30
2019-03-18T08:20:53.132Z,39.30
2019-03-18T08:21:57.515Z,39.40
2019-03-18T08:23:01.922Z,39.40
2019-03-18T08:24:08.332Z,39.40
2019-03-18T08:25:13.001Z,40.00
2019-03-18T08:26:17.639Z,39.40
2019-03-18T08:27:22.050Z,40.10
2019-03-18T08:28:26.773Z,39.40
2019-03-18T08:30:35.663Z,39.60
2019-03-18T08:35:54.546Z,37.80
2019-03-18T08:36:58.941Z,37.20
2019-03-18T08:39:07.325Z,35.30
2019-03-18T08:41:15.614Z,33.30
2019-03-18T08:42:20.022Z,32.20
2019-03-18T08:43:24.488Z,31.80
2019-03-18T08:45:32.616Z,30.40
2019-03-18T08:48:55.370Z,29.70
2019-03-18T08:49:50.599Z,28.80
2019-03-18T08:50:55.049Z,29.10
2019-03-18T08:53:03.180Z,29.60
2019-03-18T08:56:15.079Z,29.30
2019-03-18T08:57:19.472Z,29.20
2019-03-18T08:59:27.458Z,29.70
2019-03-18T09:00:32.920Z,30.00
2019-03-18T09:01:37.326Z,29.60
2019-03-18T09:02:41.834Z,29.50
2019-03-18T09:03:46.342Z,29.70
2019-03-18T09:04:50.775Z,30.40
2019-03-18T09:06:58.810Z,30.80
2019-03-18T09:09:07.406Z,30.70
2019-03-18T09:10:13.840Z,30.90
2019-03-18T09:11:19.274Z,30.90
2019-03-18T09:16:38.063Z,30.40
2019-03-18T09:19:49.871Z,30.80
2019-03-18T09:21:57.872Z,29.20
2019-03-18T09:23:02.340Z,29.20
2019-03-18T09:24:07.363Z,29.40
2019-03-18T09:26:18.808Z,28.40
2019-03-18T09:27:23.248Z,27.20
2019-03-18T09:28:27.765Z,26.30
2019-03-18T09:29:32.173Z,25.50
2019-03-18T09:31:41.226Z,24.70
2019-03-18T09:32:46.848Z,24.10
2019-03-18T09:37:02.112Z,22.30
2019-03-18T09:38:06.941Z,21.90
2019-03-18T09:42:23.956Z,21.60
2019-03-18T09:46:41.294Z,19.30
2019-03-18T09:47:45.804Z,19.40
2019-03-18T09:48:51.381Z,20.40
2019-03-18T09:49:55.753Z,21.20
2019-03-18T09:53:07.449Z,23.20
2019-03-18T09:55:15.440Z,24.30
2019-03-18T09:59:30.632Z,27.00
2019-03-18T10:01:39.726Z,28.50
2019-03-18T10:02:44.161Z,28.90
2019-03-18T10:11:16.728Z,29.60
2019-03-18T10:12:21.392Z,30.00
2019-03-18T10:14:29.434Z,30.00
2019-03-18T10:15:33.918Z,30.40
2019-03-18T10:16:38.301Z,30.80
2019-03-18T10:18:46.304Z,30.80
2019-03-18T10:20:54.378Z,30.70
2019-03-18T10:27:17.004Z,27.10
2019-03-18T10:29:25.088Z,27.50
2019-03-18T10:31:33.122Z,26.90
2019-03-18T10:34:44.771Z,24.50
2019-03-18T10:35:49.161Z,23.30
2019-03-18T10:41:13.796Z,20.10
2019-03-18T10:43:21.883Z,19.80
2019-03-18T10:44:26.256Z,20.00
2019-03-18T10:45:30.916Z,19.50
2019-03-18T10:46:37.273Z,19.60
2019-03-18T10:48:45.364Z,19.50
2019-03-18T10:49:50.194Z,19.60
2019-03-18T10:50:55.616Z,19.30
2019-03-18T10:54:07.472Z,19.20
2019-03-18T10:55:12.213Z,19.50
2019-03-18T10:56:16.564Z,19.50
2019-03-18T10:57:20.939Z,18.70
2019-03-18T10:59:29.720Z,19.80
2019-03-18T11:02:41.359Z,19.20
2019-03-18T11:04:49.961Z,18.80
2019-03-18T11:06:57.945Z,18.70
2019-03-18T11:08:02.337Z,18.60
2019-03-18T11:10:12.951Z,18.50
2019-03-18T11:11:17.591Z,18.90
2019-03-18T11:13:25.577Z,19.50
2019-03-18T11:14:29.940Z,20.00
2019-03-18T11:15:34.394Z,21.10
2019-03-18T11:21:56.945Z,24.50
2019-03-18T11:24:04.941Z,25.00
2019-03-18T11:25:12.429Z,25.20
2019-03-18T11:28:24.122Z,26.00
2019-03-18T11:29:28.523Z,26.10
2019-03-18T11:33:43.724Z,26.40
2019-03-18T11:34:48.120Z,26.70
2019-03-18T11:40:14.505Z,27.30
2019-03-18T11:42:22.575Z,27.00
2019-03-18T11:45:35.065Z,26.40
2019-03-18T11:47:43.947Z,26.50
2019-03-18T11:48:48.275Z,26.20
2019-03-18T11:50:56.313Z,25.80
2019-03-18T11:54:08.009Z,25.60
2019-03-18T11:56:31.985Z,25.60
2019-03-18T11:57:36.394Z,25.60
2019-03-18T11:59:46.735Z,25.50
2019-03-18T12:00:50.930Z,25.30
2019-03-18T12:01:55.274Z,25.80
2019-03-18T12:04:03.559Z,25.60
2019-03-18T12:06:15.661Z,25.90
2019-03-18T12:13:41.818Z,26.00
2019-03-18T12:15:49.917Z,26.30
2019-03-18T12:17:57.990Z,26.30
2019-03-18T12:19:02.374Z,26.20
2019-03-18T12:21:15.910Z,26.60
2019-03-18T12:27:38.139Z,27.50
2019-03-18T12:28:42.611Z,27.80
2019-03-18T12:31:54.519Z,27.70
2019-03-18T12:32:59.034Z,28.00
2019-03-18T12:38:19.507Z,26.30
2019-03-18T12:41:31.138Z,26.00
2019-03-18T12:43:38.107Z,25.40
2019-03-18T12:46:50.730Z,25.30
2019-03-18T12:47:55.118Z,25.20
2019-03-18T12:48:59.541Z,25.20
2019-03-18T12:53:18.510Z,24.90
2019-03-18T12:54:22.927Z,24.80
2019-03-18T13:03:57.229Z,24.90
2019-03-18T13:05:01.658Z,25.00
2019-03-18T13:06:06.164Z,25.10
2019-03-18T13:08:14.199Z,24.80
2019-03-18T13:09:19.495Z,24.60
2019-03-18T13:11:28.512Z,25.40
2019-03-18T13:12:32.987Z,24.80
2019-03-18T13:14:40.984Z,24.90
2019-03-18T13:15:45.385Z,24.50
2019-03-18T13:23:11.455Z,24.20
2019-03-18T13:24:15.927Z,24.30
2019-03-18T13:25:20.338Z,24.30
2019-03-18T13:28:31.989Z,25.20
2019-03-18T13:30:41.027Z,25.70
2019-03-18T13:32:49.063Z,25.90
2019-03-18T13:33:53.448Z,25.70
2019-03-18T13:36:01.464Z,26.00
2019-03-18T13:38:09.599Z,26.20
2019-03-18T13:39:14.234Z,26.40
2019-03-18T13:40:19.496Z,26.50
2019-03-18T13:41:24.203Z,26.60
2019-03-18T13:42:28.597Z,26.60
2019-03-18T13:44:36.587Z,26.90
2019-03-18T13:45:40.974Z,27.10
2019-03-18T13:46:45.687Z,27.20
2019-03-18T13:48:53.709Z,27.50
2019-03-18T13:49:58.193Z,27.50
2019-03-18T13:58:27.932Z,27.90
2019-03-18T14:00:35.953Z,28.20
2019-03-18T14:01:40.467Z,28.60
2019-03-18T14:06:59.933Z,28.50
2019-03-18T14:09:08.147Z,28.50
2019-03-18T14:11:17.449Z,28.50
2019-03-18T14:12:22.085Z,28.60
2019-03-18T14:14:30.632Z,28.70
2019-03-18T14:17:42.344Z,28.90
2019-03-18T14:19:50.298Z,28.40
2019-03-18T14:21:58.375Z,28.20
2019-03-18T14:24:06.735Z,28.60
2019-03-18T14:26:16.035Z,28.80
2019-03-18T14:28:24.038Z,29.10
2019-03-18T14:31:36.874Z,29.70
2019-03-18T14:32:41.274Z,29.70
2019-03-18T14:33:45.670Z,29.90
2019-03-18T14:34:50.056Z,29.80
2019-03-18T14:35:54.598Z,29.70
2019-03-18T14:36:59.056Z,29.90
2019-03-18T14:38:03.795Z,29.80
2019-03-18T14:39:08.183Z,30.50
2019-03-18T14:40:17.248Z,29.90
2019-03-18T14:43:29.127Z,29.70
2019-03-18T14:44:33.557Z,29.80
2019-03-18T14:49:53.418Z,30.00
2019-03-18T14:52:01.761Z,30.00
2019-03-18T14:56:19.647Z,30.50
2019-03-18T14:57:24.018Z,30.40
2019-03-18T15:00:35.684Z,30.00
2019-03-18T15:02:43.778Z,31.00
2019-03-18T15:03:49.327Z,30.40
2019-03-18T15:09:08.530Z,30.40
2019-03-18T15:11:24.508Z,30.20
2019-03-18T15:19:55.180Z,30.50
2019-03-18T15:20:59.698Z,29.70
2019-03-18T15:25:20.760Z,29.90
2019-03-18T15:28:32.646Z,30.20
2019-03-18T15:31:44.247Z,30.20
2019-03-18T15:33:52.500Z,30.90
2019-03-18T15:34:56.959Z,30.60
2019-03-18T15:36:02.385Z,30.60
2019-03-18T15:40:26.472Z,30.80
2019-03-18T15:42:34.487Z,30.70
2019-03-18T15:45:46.090Z,30.70
2019-03-18T15:46:50.472Z,31.10
2019-03-18T15:47:54.929Z,31.20
2019-03-18T15:48:59.352Z,31.30
2019-03-18T15:50:06.503Z,31.60
2019-03-18T15:51:10.885Z,31.50
2019-03-18T15:52:15.283Z,31.90
2019-03-18T15:53:19.683Z,31.90
2019-03-18T15:54:24.174Z,32.20
2019-03-18T15:59:43.086Z,33.50
2019-03-18T16:00:47.856Z,33.90
2019-03-18T16:05:03.742Z,34.00
2019-03-18T16:06:08.173Z,34.50
2019-03-18T16:09:19.785Z,35.50
2019-03-18T16:11:27.842Z,35.70
2019-03-18T16:12:32.187Z,35.50
2019-03-18T16:13:36.810Z,35.80
2019-03-18T16:14:41.187Z,36.10
2019-03-18T16:17:52.824Z,36.90
2019-03-18T16:20:00.853Z,36.80
2019-03-18T16:23:13.601Z,37.10
2019-03-18T16:25:21.605Z,37.40
2019-03-18T16:27:30.664Z,37.50
2019-03-18T16:30:42.322Z,37.80
2019-03-18T16:33:53.935Z,38.00
2019-03-18T16:36:01.991Z,38.00
2019-03-18T16:37:06.336Z,38.60
2019-03-18T16:38:10.834Z,38.30
2019-03-18T16:39:16.509Z,38.80
2019-03-18T16:40:21.772Z,38.30
2019-03-18T16:41:26.177Z,38.30
2019-03-18T16:42:30.553Z,38.60
2019-03-18T16:43:35.028Z,38.60
2019-03-18T16:44:39.421Z,38.40
2019-03-18T16:46:48.362Z,38.50
2019-03-18T16:47:53.007Z,38.60
2019-03-18T16:53:13.250Z,38.30
2019-03-18T16:54:17.790Z,38.10
2019-03-18T16:58:33.054Z,38.10
2019-03-18T17:02:48.249Z,37.80
2019-03-18T17:04:56.263Z,37.70
2019-03-18T17:06:00.629Z,37.40
2019-03-18T17:07:05.081Z,37.50
2019-03-18T17:08:09.476Z,37.70
2019-03-18T17:09:13.892Z,37.60
2019-03-18T17:10:19.105Z,37.60
2019-03-18T17:12:27.277Z,37.50
2019-03-18T17:14:35.319Z,37.30
2019-03-18T17:16:43.324Z,37.10
2019-03-18T17:17:49.368Z,36.90
2019-03-18T17:19:57.487Z,36.80
2019-03-18T17:22:05.512Z,36.90
2019-03-18T17:25:23.515Z,36.80
2019-03-18T17:28:35.094Z,37.00
2019-03-18T17:29:39.521Z,36.70
2019-03-18T17:32:51.219Z,36.70
2019-03-18T17:34:59.407Z,37.00
2019-03-18T17:38:11.959Z,36.80
2019-03-18T17:40:20.747Z,37.20
2019-03-18T17:42:28.981Z,37.10
2019-03-18T17:43:34.057Z,37.20
2019-03-18T17:44:38.487Z,37.30
2019-03-18T17:48:55.184Z,37.40
2019-03-18T17:54:14.466Z,37.50
2019-03-18T17:58:30.902Z,37.90
2019-03-18T18:00:38.909Z,37.80
2019-03-18T18:01:43.301Z,37.90
2019-03-18T18:02:47.718Z,37.80
2019-03-18T18:06:00.591Z,37.80
2019-03-18T18:09:12.630Z,38.20
2019-03-18T18:10:17.045Z,38.20
2019-03-18T18:14:32.630Z,38.50
2019-03-18T18:22:00.766Z,38.90
2019-03-18T18:28:28.349Z,38.70
2019-03-18T18:29:31.920Z,38.70
2019-03-18T18:32:44.715Z,38.70
2019-03-18T18:33:49.141Z,38.60
2019-03-18T18:35:57.131Z,39.00
2019-03-18T18:37:01.548Z,39.00
2019-03-18T18:38:06.129Z,39.20
2019-03-18T18:40:16.452Z,39.30
2019-03-18T18:41:20.820Z,39.50
2019-03-18T18:42:25.225Z,39.40
2019-03-18T18:44:33.241Z,39.30
2019-03-18T18:47:44.907Z,39.30
2019-03-18T18:52:01.113Z,39.60
2019-03-18T18:53:05.553Z,39.40
2019-03-18T18:56:18.048Z,39.20
2019-03-18T18:57:22.457Z,39.50
2019-03-18T18:59:31.288Z,39.40
2019-03-18T19:00:36.629Z,39.50
2019-03-18T19:03:48.625Z,39.60
2019-03-18T19:04:53.026Z,39.40
2019-03-18T19:07:01.734Z,39.20
2019-03-18T19:09:09.700Z,39.50
2019-03-18T19:11:23.783Z,39.50
2019-03-18T19:12:28.184Z,39.50
2019-03-18T19:14:37.753Z,39.40
2019-03-18T19:16:47.768Z,39.70
2019-03-18T19:17:52.279Z,39.80
2019-03-18T19:18:56.668Z,39.70
2019-03-18T19:20:01.290Z,39.50
2019-03-18T19:21:05.729Z,39.60
2019-03-18T19:22:10.436Z,39.50
2019-03-18T19:23:14.929Z,39.40
2019-03-18T19:24:19.337Z,39.50
2019-03-18T19:25:23.770Z,39.50
2019-03-18T19:27:31.863Z,39.60
2019-03-18T19:28:36.223Z,39.80
2019-03-18T19:31:47.904Z,39.70
2019-03-18T19:36:03.352Z,40.00
2019-03-18T19:39:15.053Z,39.90
2019-03-18T19:40:20.464Z,40.10
2019-03-18T19:41:24.893Z,40.20
2019-03-18T19:42:29.296Z,40.20
2019-03-18T19:43:33.732Z,40.00
2019-03-18T19:48:54.601Z,40.20
2019-03-18T19:49:58.946Z,40.50
2019-03-18T19:51:03.350Z,40.40
2019-03-18T19:53:11.329Z,40.30
2019-03-18T19:56:22.943Z,40.40
2019-03-18T19:58:31.066Z,40.40
2019-03-18T19:59:35.558Z,40.40
2019-03-18T20:00:40.271Z,40.60
2019-03-18T20:01:44.984Z,40.80
2019-03-18T20:08:07.454Z,42.00
2019-03-18T20:09:11.888Z,41.70
2019-03-18T20:11:21.408Z,41.80
2019-03-18T20:13:29.388Z,41.90
2019-03-18T20:14:33.797Z,41.90
2019-03-18T20:17:46.213Z,42.30
2019-03-18T20:18:50.589Z,42.10
2019-03-18T20:19:55.231Z,42.20
2019-03-18T20:21:00.635Z,42.20
2019-03-18T20:22:05.062Z,42.30
2019-03-18T20:23:09.573Z,42.20
2019-03-18T20:25:18.544Z,42.30
2019-03-18T20:28:30.368Z,42.40
2019-03-18T20:29:34.742Z,42.50
2019-03-18T20:31:42.737Z,42.30
2019-03-18T20:32:47.120Z,42.40
2019-03-18T20:35:58.686Z,42.50
2019-03-18T20:37:03.086Z,42.40
2019-03-18T20:38:07.828Z,42.50
2019-03-18T20:39:12.188Z,42.50
2019-03-18T20:42:24.873Z,42.60
2019-03-18T20:44:32.836Z,42.60
2019-03-18T20:48:48.064Z,42.60
2019-03-18T20:50:56.773Z,42.90
2019-03-18T20:53:05.064Z,42.60
2019-03-18T20:57:22.075Z,43.00
2019-03-18T21:00:33.617Z,42.80
2019-03-18T21:01:38.265Z,42.70
2019-03-18T21:02:43.666Z,42.70
2019-03-18T21:03:48.269Z,42.90
2019-03-18T21:05:56.235Z,42.70
2019-03-18T21:07:00.651Z,42.90
2019-03-18T21:10:20.508Z,43.00
2019-03-18T21:12:28.573Z,43.00
2019-03-18T21:13:33.257Z,42.70
2019-03-18T21:16:45.859Z,42.30
2019-03-18T21:17:51.409Z,42.40
2019-03-18T21:19:59.509Z,42.20
2019-03-18T21:23:11.144Z,42.60
2019-03-18T21:25:19.156Z,42.60
2019-03-18T21:31:41.806Z,43.00
2019-03-18T21:33:49.784Z,43.00
2019-03-18T21:34:54.179Z,43.10
2019-03-18T21:43:26.388Z,43.40
2019-03-18T21:47:41.564Z,42.50
2019-03-18T21:51:56.707Z,42.30
2019-03-18T21:55:08.546Z,42.60
2019-03-18T21:57:17.133Z,42.50
2019-03-18T21:58:21.660Z,42.50
2019-03-18T21:59:26.025Z,42.40
2019-03-18T22:04:44.836Z,42.60
2019-03-18T22:06:52.833Z,42.60
2019-03-18T22:07:57.199Z,42.70
2019-03-18T22:09:01.607Z,42.60
2019-03-18T22:14:26.277Z,42.40
2019-03-18T22:17:37.882Z,42.50
2019-03-18T22:18:42.479Z,42.50
2019-03-18T22:20:50.504Z,42.70
2019-03-18T22:22:58.578Z,42.60
2019-03-18T22:24:02.990Z,42.60
2019-03-18T22:27:18.393Z,42.60
2019-03-18T22:30:29.983Z,42.60
2019-03-18T22:33:41.744Z,42.60
2019-03-18T22:34:46.156Z,42.50
2019-03-18T22:35:50.679Z,42.50
2019-03-18T22:37:58.663Z,42.70
2019-03-18T22:39:04.596Z,42.60
2019-03-18T22:41:15.057Z,42.70
2019-03-18T22:42:19.439Z,42.70
2019-03-18T22:43:23.887Z,42.80
2019-03-18T22:44:28.296Z,42.50
2019-03-18T22:46:37.319Z,42.70
2019-03-18T22:47:41.728Z,42.80
2019-03-18T22:48:46.563Z,42.90
2019-03-18T22:49:50.960Z,42.80
2019-03-18T22:50:55.370Z,42.70
2019-03-18T22:51:59.784Z,42.60
2019-03-18T22:53:04.201Z,42.70
2019-03-18T22:54:08.792Z,42.60
2019-03-18T22:57:21.220Z,42.90
2019-03-18T23:03:45.120Z,42.90
2019-03-18T23:05:53.112Z,43.00
2019-03-18T23:06:57.518Z,42.90
2019-03-18T23:08:02.296Z,42.90
2019-03-18T23:12:18.540Z,43.00
2019-03-18T23:17:38.983Z,43.00
2019-03-18T23:19:46.955Z,43.00
2019-03-18T23:20:52.109Z,42.80
2019-03-18T23:21:56.494Z,42.90
2019-03-18T23:23:01.216Z,42.90
2019-03-18T23:32:34.541Z,42.90
2019-03-18T23:33:38.964Z,43.00
2019-03-18T23:34:43.364Z,43.00
2019-03-18T23:38:59.452Z,42.90
2019-03-18T23:40:09.105Z,43.00
2019-03-18T23:41:14.743Z,43.10
2019-03-18T23:43:22.741Z,43.00
2019-03-18T23:49:47.407Z,43.00
2019-03-18T23:52:58.652Z,43.10
2019-03-18T23:54:03.042Z,43.30
2019-03-18T23:56:12.277Z,43.30
2019-03-18T23:57:16.685Z,43.30
